createdAt,value
2023-02-02T00:01:58.074Z,5.90
2023-02-02T00:04:31.338Z,6.03
2023-02-02T00:07:01.163Z,6.47
2023-02-02T00:09:32.661Z,5.78
2023-02-02T00:12:03.031Z,5.38
2023-02-02T00:14:32.115Z,5.20
2023-02-02T00:17:04.117Z,5.72
2023-02-02T00:19:33.579Z,5.07
2023-02-02T00:22:02.743Z,5.20
2023-02-02T00:24:31.667Z,5.47
2023-02-02T00:27:01.896Z,5.32
2023-02-02T00:29:33.168Z,5.90
2023-02-02T00:32:03.776Z,5.47
2023-02-02T00:34:32.575Z,5.95
2023-02-02T00:37:01.744Z,5.63
2023-02-02T00:39:30.966Z,5.55
2023-02-02T00:42:00.165Z,5.93
2023-02-02T00:44:46.288Z,6.35
2023-02-02T00:47:18.027Z,5.65
2023-02-02T00:49:46.980Z,5.68
2023-02-02T00:52:16.296Z,5.47
2023-02-02T00:54:47.041Z,5.50
2023-02-02T00:57:17.061Z,4.95
2023-02-02T00:59:45.955Z,6.32
2023-02-02T01:02:16.517Z,5.93
2023-02-02T01:04:45.710Z,5.60
2023-02-02T01:07:14.906Z,5.30
2023-02-02T01:09:43.745Z,5.32
2023-02-02T01:12:12.994Z,5.70
2023-02-02T01:14:41.895Z,4.68
2023-02-02T01:17:11.130Z,5.28
2023-02-02T01:19:41.520Z,4.95
2023-02-02T01:22:10.952Z,5.03
2023-02-02T01:24:40.334Z,5.18
2023-02-02T01:27:09.597Z,5.13
2023-02-02T01:29:38.450Z,5.20
2023-02-02T01:32:07.744Z,5.25
2023-02-02T01:34:36.639Z,5.40
2023-02-02T01:37:07.786Z,5.10
2023-02-02T01:39:36.929Z,5.30
2023-02-02T01:42:15.138Z,5.55
2023-02-02T01:45:20.660Z,5.63
2023-02-02T01:47:55.322Z,5.10
2023-02-02T01:50:29.626Z,5.07
2023-02-02T01:53:03.305Z,5.03
2023-02-02T01:55:37.109Z,5.75
2023-02-02T01:58:11.418Z,5.05
2023-02-02T02:00:45.059Z,4.90
2023-02-02T02:03:20.149Z,6.03
2023-02-02T02:05:56.658Z,5.95
2023-02-02T02:08:32.588Z,5.88
2023-02-02T02:11:02.503Z,7.57
2023-02-02T02:13:49.787Z,6.55
2023-02-02T02:16:32.275Z,5.53
2023-02-02T02:19:22.700Z,5.38
2023-02-02T02:22:20.854Z,5.35
2023-02-02T02:25:53.413Z,5.35
2023-02-02T02:28:52.596Z,6.53
2023-02-02T02:32:01.272Z,8.02
2023-02-02T02:34:54.103Z,4.88
2023-02-02T02:37:38.109Z,4.80
2023-02-02T02:40:21.716Z,6.80
2023-02-02T02:42:56.807Z,4.57
2023-02-02T02:45:29.912Z,4.63
2023-02-02T02:48:00.997Z,4.82
2023-02-02T02:50:31.166Z,5.70
2023-02-02T02:53:10.709Z,5.70
2023-02-02T02:55:50.209Z,6.15
2023-02-02T02:58:32.563Z,5.88
2023-02-02T03:01:11.759Z,6.35
2023-02-02T03:04:06.919Z,6.60
2023-02-02T03:06:46.481Z,7.30
2023-02-02T03:09:23.344Z,6.93
2023-02-02T03:11:52.327Z,7.15
2023-02-02T03:14:21.466Z,6.82
2023-02-02T03:16:52.753Z,6.25
2023-02-02T03:19:23.590Z,8.95
2023-02-02T03:21:52.397Z,5.93
2023-02-02T03:24:21.511Z,6.68
2023-02-02T03:26:50.514Z,6.70
2023-02-02T03:29:20.241Z,6.30
2023-02-02T03:31:49.525Z,6.90
2023-02-02T03:34:18.619Z,6.22
2023-02-02T03:36:48.779Z,7.50
2023-02-02T03:39:18.041Z,6.80
2023-02-02T03:41:46.915Z,6.20
2023-02-02T03:44:15.978Z,6.68
2023-02-02T03:46:44.856Z,5.88
2023-02-02T03:49:14.052Z,5.60
2023-02-02T03:51:44.344Z,5.53
2023-02-02T03:54:15.522Z,5.00
2023-02-02T03:56:44.378Z,4.65
2023-02-02T03:59:13.396Z,4.10
2023-02-02T04:01:42.373Z,4.38
2023-02-02T04:04:11.498Z,4.53
2023-02-02T04:06:40.417Z,4.45
2023-02-02T04:09:09.647Z,3.85
2023-02-02T04:11:40.147Z,4.65
2023-02-02T04:14:10.741Z,4.38
2023-02-02T04:16:39.546Z,4.15
2023-02-02T04:19:08.785Z,4.82
2023-02-02T04:21:37.545Z,4.13
2023-02-02T04:24:07.972Z,3.75
2023-02-02T04:26:36.823Z,3.88
2023-02-02T04:29:07.414Z,3.17
2023-02-02T04:31:36.287Z,3.05
2023-02-02T04:34:05.651Z,3.33
2023-02-02T04:36:34.547Z,3.72
2023-02-02T04:39:03.643Z,3.47
2023-02-02T04:41:32.538Z,3.83
2023-02-02T04:44:01.620Z,3.08
2023-02-02T04:46:32.187Z,3.15
2023-02-02T04:49:01.285Z,3.97
2023-02-02T04:51:30.082Z,3.58
2023-02-02T04:53:59.173Z,3.85
2023-02-02T04:56:29.175Z,3.60
2023-02-02T04:58:58.388Z,3.28
2023-02-02T05:01:27.723Z,3.92
2023-02-02T05:03:58.416Z,3.58
2023-02-02T05:06:27.353Z,3.90
2023-02-02T05:08:56.515Z,3.97
2023-02-02T05:11:25.769Z,3.38
2023-02-02T05:13:56.564Z,3.47
2023-02-02T05:16:28.816Z,3.10
2023-02-02T05:18:59.758Z,3.72
2023-02-02T05:21:28.834Z,2.65
2023-02-02T05:23:58.502Z,3.13
2023-02-02T05:26:28.449Z,3.42
2023-02-02T05:28:58.600Z,3.10
2023-02-02T05:31:27.466Z,2.70
2023-02-02T05:33:56.621Z,3.00
2023-02-02T05:36:26.796Z,2.95
2023-02-02T05:38:56.006Z,2.72
2023-02-02T05:41:24.767Z,3.25
2023-02-02T05:43:53.872Z,2.88
2023-02-02T05:46:22.683Z,2.95
2023-02-02T05:48:51.761Z,2.85
2023-02-02T05:51:25.505Z,3.00
2023-02-02T05:53:56.280Z,2.90
2023-02-02T05:56:25.242Z,2.70
2023-02-02T05:58:54.332Z,3.38
2023-02-02T06:01:23.406Z,2.72
2023-02-02T06:03:52.594Z,3.67
2023-02-02T06:06:21.439Z,3.63
2023-02-02T06:08:50.567Z,3.15
2023-02-02T06:11:21.106Z,3.75
2023-02-02T06:13:50.494Z,3.80
2023-02-02T06:16:19.324Z,3.45
2023-02-02T06:18:48.615Z,3.28
2023-02-02T06:21:19.828Z,3.90
2023-02-02T06:23:49.066Z,3.60
2023-02-02T06:26:18.866Z,3.03
2023-02-02T06:28:53.793Z,3.70
2023-02-02T06:31:23.557Z,2.95
2023-02-02T06:33:56.740Z,3.53
2023-02-02T06:36:27.914Z,3.78
2023-02-02T06:38:59.278Z,3.63
2023-02-02T06:41:28.069Z,4.32
2023-02-02T06:43:58.498Z,3.65
2023-02-02T06:46:27.579Z,4.15
2023-02-02T06:48:56.685Z,4.05
2023-02-02T06:51:25.489Z,3.15
2023-02-02T06:53:54.605Z,3.90
2023-02-02T06:56:23.537Z,3.60
2023-02-02T06:58:52.595Z,3.17
2023-02-02T07:01:23.064Z,3.50
2023-02-02T07:03:53.549Z,3.85
2023-02-02T07:06:25.853Z,3.78
2023-02-02T07:09:02.324Z,4.38
2023-02-02T07:11:39.511Z,3.95
2023-02-02T07:14:13.567Z,3.42
2023-02-02T07:16:43.878Z,3.95
2023-02-02T07:19:13.020Z,3.78
2023-02-02T07:21:41.877Z,3.42
2023-02-02T07:24:11.240Z,4.13
2023-02-02T07:26:40.150Z,4.13
2023-02-02T07:29:13.250Z,4.47
2023-02-02T07:31:43.779Z,3.95
2023-02-02T07:34:13.057Z,4.20
2023-02-02T07:36:41.987Z,3.80
2023-02-02T07:39:12.493Z,4.13
2023-02-02T07:41:41.456Z,4.57
2023-02-02T07:44:18.920Z,4.10
2023-02-02T07:46:49.380Z,3.72
2023-02-02T07:49:20.407Z,3.78
2023-02-02T07:51:49.405Z,4.10
2023-02-02T07:54:18.570Z,3.60
2023-02-02T07:56:47.396Z,3.67
2023-02-02T07:59:16.581Z,3.30
2023-02-02T08:01:45.507Z,3.55
2023-02-02T08:04:17.364Z,3.47
2023-02-02T08:06:46.237Z,3.17
2023-02-02T08:09:15.297Z,3.05
2023-02-02T08:11:44.138Z,3.00
2023-02-02T08:14:15.146Z,2.78
2023-02-02T08:16:44.091Z,2.40
2023-02-02T08:19:15.180Z,2.80
2023-02-02T08:21:44.044Z,3.13
2023-02-02T08:24:13.148Z,3.28
2023-02-02T08:26:42.096Z,3.30
2023-02-02T08:29:11.451Z,3.20
2023-02-02T08:31:42.859Z,3.10
2023-02-02T08:34:14.034Z,3.28
2023-02-02T08:36:44.299Z,3.08
2023-02-02T08:39:14.493Z,3.30
2023-02-02T08:41:43.342Z,4.15
2023-02-02T08:44:15.943Z,3.20
2023-02-02T08:46:44.818Z,3.40
2023-02-02T08:49:14.917Z,4.53
2023-02-02T08:51:45.137Z,3.80
2023-02-02T08:54:15.120Z,4.28
2023-02-02T08:56:43.980Z,3.58
2023-02-02T08:59:13.058Z,3.47
2023-02-02T09:01:41.867Z,3.90
2023-02-02T09:04:17.179Z,3.40
2023-02-02T09:06:48.295Z,3.35
2023-02-02T09:09:18.045Z,3.78
2023-02-02T09:11:48.061Z,4.93
2023-02-02T09:14:17.239Z,4.18
2023-02-02T09:16:46.134Z,4.63
2023-02-02T09:19:15.285Z,4.93
2023-02-02T09:21:44.337Z,4.50
2023-02-02T09:24:15.596Z,4.60
2023-02-02T09:26:45.860Z,3.95
2023-02-02T09:29:18.855Z,4.53
2023-02-02T09:31:48.039Z,3.80
2023-02-02T09:34:17.850Z,3.85
2023-02-02T09:36:47.780Z,4.65
2023-02-02T09:39:19.573Z,4.70
2023-02-02T09:42:33.874Z,4.68
2023-02-02T09:45:12.648Z,4.40
2023-02-02T09:47:56.740Z,5.70
2023-02-02T09:50:46.995Z,5.35
2023-02-02T09:53:35.020Z,4.88
2023-02-02T09:56:17.510Z,6.35
2023-02-02T09:58:52.233Z,6.13
2023-02-02T10:01:28.215Z,6.40
2023-02-02T10:04:05.564Z,6.22
2023-02-02T10:06:40.645Z,6.03
2023-02-02T10:09:27.010Z,5.78
2023-02-02T10:12:06.306Z,4.70
2023-02-02T10:14:42.355Z,4.05
2023-02-02T10:17:41.707Z,4.80
2023-02-02T10:20:35.311Z,4.75
2023-02-02T10:23:17.144Z,4.13
2023-02-02T10:25:57.414Z,3.95
2023-02-02T10:28:55.217Z,4.45
2023-02-02T10:31:44.112Z,4.28
2023-02-02T10:34:23.124Z,4.03
2023-02-02T10:37:23.723Z,4.50
2023-02-02T10:40:14.894Z,4.05
2023-02-02T10:43:18.610Z,3.70
2023-02-02T10:45:52.601Z,4.25
2023-02-02T10:48:30.398Z,3.67
2023-02-02T10:51:07.288Z,3.20
2023-02-02T10:53:36.487Z,3.80
2023-02-02T10:56:13.123Z,3.33
2023-02-02T10:58:53.186Z,3.75
2023-02-02T11:01:23.787Z,3.50
2023-02-02T11:04:13.280Z,3.50
2023-02-02T11:06:51.355Z,3.78
2023-02-02T11:09:25.345Z,3.50
2023-02-02T11:12:02.150Z,3.63
2023-02-02T11:14:45.478Z,4.35
2023-02-02T11:17:22.648Z,3.28
2023-02-02T11:19:52.467Z,3.33
2023-02-02T11:22:33.982Z,4.53
2023-02-02T11:25:06.454Z,3.20
2023-02-02T11:27:41.291Z,4.55
2023-02-02T11:30:27.486Z,4.82
2023-02-02T11:32:58.307Z,4.43
2023-02-02T11:35:29.772Z,4.10
2023-02-02T11:38:11.211Z,4.47
2023-02-02T11:40:43.612Z,4.78
2023-02-02T11:43:21.017Z,4.70
2023-02-02T11:45:59.286Z,4.47
2023-02-02T11:48:36.749Z,5.10
2023-02-02T11:51:09.051Z,5.25
2023-02-02T11:53:47.733Z,6.05
2023-02-02T11:56:25.190Z,5.88
2023-02-02T11:58:56.630Z,6.07
2023-02-02T12:01:28.400Z,5.82
2023-02-02T12:04:01.654Z,5.35
2023-02-02T12:06:39.313Z,6.10
2023-02-02T12:09:15.937Z,6.40
2023-02-02T12:12:02.340Z,6.25
2023-02-02T12:14:48.174Z,6.50
2023-02-02T12:17:39.037Z,6.00
2023-02-02T12:20:27.691Z,6.13
2023-02-02T12:23:39.345Z,6.65
2023-02-02T12:26:23.194Z,6.47
2023-02-02T12:29:26.674Z,6.60
2023-02-02T12:32:24.729Z,5.53
2023-02-02T12:35:14.180Z,5.30
2023-02-02T12:38:02.450Z,5.70
2023-02-02T12:40:55.785Z,5.50
2023-02-02T12:43:39.616Z,5.30
2023-02-02T12:46:37.799Z,5.78
2023-02-02T12:49:39.034Z,5.00
2023-02-02T12:52:30.234Z,6.70
2023-02-02T12:55:23.300Z,4.50
2023-02-02T12:58:07.385Z,5.28
2023-02-02T13:01:21.319Z,5.22
2023-02-02T13:07:43.942Z,3.47
2023-02-02T13:10:29.324Z,4.50
2023-02-02T13:13:05.650Z,3.72
2023-02-02T13:15:38.755Z,2.58
2023-02-02T13:18:15.027Z,2.50
2023-02-02T13:20:49.747Z,2.80
2023-02-02T13:23:29.194Z,3.28
2023-02-02T13:26:08.110Z,2.67
2023-02-02T13:28:44.786Z,2.72
2023-02-02T13:31:20.686Z,3.50
2023-02-02T13:34:05.685Z,3.20
2023-02-02T13:36:39.072Z,4.07
2023-02-02T13:39:19.717Z,3.10
2023-02-02T13:41:53.430Z,3.47
2023-02-02T13:44:33.276Z,2.65
2023-02-02T13:47:10.747Z,3.05
2023-02-02T13:49:47.754Z,2.88
2023-02-02T13:52:47.483Z,2.90
2023-02-02T13:55:50.269Z,3.08
2023-02-02T13:59:00.992Z,2.97
2023-02-02T14:01:33.567Z,4.13
2023-02-02T14:04:04.524Z,3.47
2023-02-02T14:06:57.393Z,4.05
2023-02-02T14:09:31.016Z,4.30
2023-02-02T14:12:04.274Z,3.88
2023-02-02T14:14:39.953Z,4.38
2023-02-02T14:17:55.718Z,4.85
2023-02-02T14:20:51.778Z,4.13
2023-02-02T14:23:53.819Z,4.35
2023-02-02T14:26:44.947Z,4.82
2023-02-02T14:30:00.102Z,4.20
2023-02-02T14:32:43.821Z,3.10
2023-02-02T14:35:55.869Z,3.15
2023-02-02T14:39:01.080Z,2.92
2023-02-02T14:42:15.518Z,3.38
2023-02-02T14:45:30.131Z,3.35
2023-02-02T14:48:02.471Z,3.30
2023-02-02T14:50:50.039Z,3.17
2023-02-02T14:53:26.950Z,3.60
2023-02-02T14:56:04.135Z,3.30
2023-02-02T14:58:37.240Z,3.42
2023-02-02T15:01:14.600Z,3.60
2023-02-02T15:03:55.419Z,3.15
2023-02-02T15:06:33.920Z,2.88
2023-02-02T15:09:41.456Z,2.75
2023-02-02T15:12:39.639Z,3.55
2023-02-02T15:15:24.829Z,3.58
2023-02-02T15:18:12.720Z,3.38
2023-02-02T15:20:48.921Z,3.60
2023-02-02T15:23:31.469Z,3.30
2023-02-02T15:26:07.923Z,4.32
2023-02-02T15:28:45.304Z,4.35
2023-02-02T15:31:24.313Z,4.00
2023-02-02T15:34:01.247Z,3.60
2023-02-02T15:36:34.769Z,3.88
2023-02-02T15:39:14.683Z,3.55
2023-02-02T15:41:46.288Z,4.05
2023-02-02T15:44:27.672Z,4.63
2023-02-02T15:46:58.371Z,5.50
2023-02-02T15:49:36.003Z,5.60
2023-02-02T15:52:16.098Z,4.70
2023-02-02T15:54:54.059Z,4.47
2023-02-02T15:57:29.462Z,4.55
2023-02-02T15:59:59.077Z,3.10
2023-02-02T16:02:38.965Z,2.90
2023-02-02T16:09:41.910Z,3.83
2023-02-02T16:12:18.712Z,3.70
2023-02-02T16:14:50.556Z,4.18
2023-02-02T16:21:59.742Z,3.63
2023-02-02T16:24:32.947Z,3.63
2023-02-02T16:27:10.115Z,3.00
2023-02-02T16:29:41.547Z,3.63
2023-02-02T16:32:29.779Z,4.18
2023-02-02T16:34:59.813Z,3.42
2023-02-02T16:37:32.480Z,3.47
2023-02-02T16:40:30.498Z,3.83
2023-02-02T16:43:16.923Z,3.42
2023-02-02T16:45:51.825Z,3.83
2023-02-02T16:52:56.348Z,4.28
2023-02-02T16:55:39.894Z,4.60
2023-02-02T16:58:23.863Z,4.18
2023-02-02T17:02:31.163Z,4.72
2023-02-02T17:05:08.995Z,4.20
2023-02-02T17:07:42.030Z,3.67
2023-02-02T17:10:23.317Z,4.30
2023-02-02T17:12:52.412Z,3.72
2023-02-02T17:15:43.935Z,3.88
2023-02-02T17:18:12.785Z,3.78
2023-02-02T17:20:42.057Z,4.18
2023-02-02T17:23:19.595Z,3.92
2023-02-02T17:25:49.072Z,4.28
2023-02-02T17:28:21.749Z,4.30
2023-02-02T17:31:00.299Z,4.00
2023-02-02T17:33:29.632Z,4.22
2023-02-02T17:35:58.773Z,4.32
2023-02-02T17:38:28.339Z,4.70
2023-02-02T17:41:01.590Z,4.40
2023-02-02T17:43:31.354Z,4.38
2023-02-02T17:46:03.853Z,4.00
2023-02-02T17:48:32.788Z,4.10
2023-02-02T17:51:03.245Z,4.35
2023-02-02T17:53:33.520Z,4.28
2023-02-02T17:56:02.717Z,3.40
2023-02-02T17:58:31.801Z,4.60
2023-02-02T18:01:03.268Z,4.57
2023-02-02T18:03:37.355Z,3.55
2023-02-02T18:06:07.463Z,3.95
2023-02-02T18:08:36.434Z,4.20
2023-02-02T18:15:38.282Z,4.00
2023-02-02T18:18:08.632Z,4.10
2023-02-02T18:20:37.783Z,4.63
2023-02-02T18:23:06.572Z,4.28
2023-02-02T18:25:35.671Z,4.93
2023-02-02T18:28:04.775Z,4.55
2023-02-02T18:35:08.559Z,4.05
2023-02-02T18:37:37.652Z,4.28
2023-02-02T18:40:08.546Z,4.57
2023-02-02T18:42:37.921Z,4.60
2023-02-02T18:45:08.556Z,4.53
2023-02-02T18:47:38.146Z,4.30
2023-02-02T18:50:11.603Z,4.20
2023-02-02T18:52:40.583Z,4.15
2023-02-02T18:55:10.829Z,4.57
2023-02-02T18:57:39.687Z,4.70
2023-02-02T19:00:10.981Z,4.68
2023-02-02T19:02:40.052Z,4.72
2023-02-02T19:05:28.745Z,4.55
2023-02-02T19:07:59.190Z,5.05
2023-02-02T19:10:28.877Z,4.40
2023-02-02T19:13:10.533Z,4.15
2023-02-02T19:15:41.785Z,3.97
2023-02-02T19:18:16.494Z,3.67
2023-02-02T19:20:48.516Z,3.47
2023-02-02T19:23:20.876Z,3.22
2023-02-02T19:30:24.335Z,3.80
2023-02-02T19:32:53.439Z,4.00
2023-02-02T19:35:26.357Z,4.00
2023-02-02T19:38:03.850Z,3.50
2023-02-02T19:40:35.049Z,3.35
2023-02-02T19:43:24.385Z,3.60
2023-02-02T19:45:54.696Z,3.70
2023-02-02T19:48:27.805Z,4.57
2023-02-02T19:55:37.541Z,4.60
2023-02-02T20:02:53.102Z,3.40
2023-02-02T20:05:25.688Z,3.35
2023-02-02T20:08:01.369Z,3.55
2023-02-02T20:10:42.684Z,3.42
2023-02-02T20:13:18.146Z,3.53
2023-02-02T20:15:48.499Z,3.40
2023-02-02T20:18:22.156Z,3.60
2023-02-02T20:20:55.462Z,4.03
2023-02-02T20:23:40.563Z,4.00
2023-02-02T20:26:25.994Z,4.00
2023-02-02T20:28:59.197Z,4.60
2023-02-02T20:31:38.235Z,4.63
2023-02-02T20:34:25.361Z,4.45
2023-02-02T20:36:58.842Z,4.57
2023-02-02T20:39:34.431Z,4.77
2023-02-02T20:42:06.016Z,4.25
2023-02-02T20:44:36.470Z,4.13
2023-02-02T20:47:07.888Z,3.70
2023-02-02T20:49:38.853Z,5.10
2023-02-02T20:52:13.051Z,3.80
2023-02-02T20:54:42.272Z,4.13
2023-02-02T20:57:12.819Z,4.57
2023-02-02T20:59:41.921Z,4.57
2023-02-02T21:02:19.066Z,4.68
2023-02-02T21:04:49.813Z,4.40
2023-02-02T21:07:22.243Z,4.60
2023-02-02T21:09:52.545Z,4.63
2023-02-02T21:12:25.666Z,4.70
2023-02-02T21:14:55.252Z,4.45
2023-02-02T21:17:24.229Z,4.50
2023-02-02T21:24:25.702Z,4.50
2023-02-02T21:26:54.938Z,4.90
2023-02-02T21:29:25.531Z,4.10
2023-02-02T21:31:58.774Z,4.67
2023-02-02T21:34:28.184Z,3.83
2023-02-02T21:36:58.700Z,4.40
2023-02-02T21:39:32.096Z,4.82
2023-02-02T21:42:15.661Z,5.68
2023-02-02T21:44:53.728Z,5.53
2023-02-02T21:47:33.979Z,5.00
2023-02-02T21:50:16.863Z,4.80
2023-02-02T21:52:46.568Z,4.73
2023-02-02T21:55:35.528Z,5.10
2023-02-02T21:58:23.404Z,5.10
2023-02-02T22:00:55.296Z,4.95
2023-02-02T22:03:38.609Z,4.68
2023-02-02T22:06:26.445Z,4.82
2023-02-02T22:09:03.022Z,4.70
2023-02-02T22:11:45.631Z,5.30
2023-02-02T22:14:21.103Z,5.70
2023-02-02T22:16:54.570Z,4.80
2023-02-02T22:19:35.334Z,4.33
2023-02-02T22:26:36.299Z,4.65
2023-02-02T22:29:16.327Z,4.05
2023-02-02T22:31:45.576Z,3.85
2023-02-02T22:34:15.765Z,4.22
2023-02-02T22:41:16.350Z,3.70
2023-02-02T22:52:53.784Z,4.03
2023-02-02T22:55:23.685Z,4.40
2023-02-02T22:57:52.923Z,4.27
2023-02-02T23:04:53.721Z,4.60
2023-02-02T23:07:22.665Z,5.07
2023-02-02T23:09:53.154Z,5.50
2023-02-02T23:12:22.020Z,5.15
2023-02-02T23:14:51.233Z,4.70
2023-02-02T23:17:20.245Z,5.28
2023-02-02T23:19:49.539Z,3.97
2023-02-02T23:22:18.549Z,4.60
2023-02-02T23:29:21.923Z,3.87
2023-02-02T23:47:42.198Z,3.87
2023-02-02T23:50:13.435Z,3.83
2023-02-02T23:52:42.564Z,3.40
2023-02-02T23:55:12.330Z,3.30
2023-02-02T23:57:41.332Z,3.63
